San Juan, PR

10:31 AM AST on October 25, 2014 (GMT -0400)
Condado, Calle Earle, At The Ocean | Change Station
CLOSE
Current Station
Personal Weather Station
Location: San Juan, SAN JUAN
Elevation: 10 ft
Nearby Weather Stations

Elev 10 ft 18.46 °N, 66.07 °W | Updated 5 seconds ago

Scattered Clouds
Scattered Clouds
88.3 °F
Feels Like 99 °F
N
1.0
Wind Variable Wind from NNE
Gusts 8.0 mph

Today
High -- | Low -- °F
--% Chance of Precip.
Yesterday
High -- | Low -- °F
Precip. -- in
6:21 AM 5:55 PM
Waxing Crescent, 3% visible
Pressure 29.95 in
Visibility 10.0 miles
Clouds Scattered Clouds 2700 ft
Scattered Clouds 12000 ft
Heat Index 99 °F
Dew Point 76 °F
Humidity 67%
Rainfall 0.00 in
Snow Depth Not available.
UV 5 out of 12
Pollen Not available.
Air Quality Not available.
Flu Activity Local Activity
METAR TJSJ 251356Z 36005KT 10SM SCT027 SCT120 31/24 A2996 RMK AO2 SLP142 T03060239

More Conditions Fewer Conditions

Pressure 29.95 in
Visibility 10.0 miles
Clouds Scattered Clouds 2700 ft
Scattered Clouds 12000 ft
Heat Index 99 °F
Dew Point 76 °F
Humidity 67%
Rainfall 0.00 in
Snow Depth Not available.
UV 5 out of 12
Pollen Not available.
Air Quality Not available.
Flu Activity Local Activity
METAR TJSJ 251356Z 36005KT 10SM SCT027 SCT120 31/24 A2996 RMK AO2 SLP142 T03060239

More Conditions Fewer Conditions

10-Day Weather Forecast

Almanac

Astronomy

Oct. 25, 2014 Rise Set
Actual Time 6:21 AM AST 5:55 PM AST
Civil Twilight 5:59 AM AST 6:17 PM AST
Nautical Twilight 5:33 AM AST 6:43 PM AST
Astronomical Twilight 5:07 AM AST 7:08 PM AST
Moon 7:46 AM AST 7:26 PM AST
Length of Visible Light 12h 18m
Length of Day
11h 33m
Tomorrow will be 0m 56s shorter.
Waxing Crescent, 3% of the Moon is Illuminated
Today
Waxing Crescent
Oct 30
First Quarter
Nov 6
Full
Nov 14
Last Quarter
Nov 22
New

Community

WunderPhotos

Upload Photos

1,764,852 photos uploaded!

Nearby

Snow Depth

Station Depth Elevation
No new snow has been reported.

Earthquake Activity

City Distance Mag. Time & Date
No recent earthquake activity has been reported nearby.
Minimum magnitude displayed is 2.5.

Coastal Water Temperatures

Place Temperature
San Juan, PR 86.0 °F
Mayaguez, PR 84.9 °F
Esperanza, PR 84.0 °F

Nearby Weather Stations